createdAt,value
2022-09-04T00:01:00.546Z,58.97
2022-09-04T00:03:39.659Z,59.04
2022-09-04T00:06:16.891Z,59.28
2022-09-04T00:09:09.467Z,59.24
2022-09-04T00:11:58.164Z,59.51
2022-09-04T00:14:42.833Z,59.40
2022-09-04T00:17:33.182Z,59.72
2022-09-04T00:20:07.857Z,59.38
2022-09-04T00:22:55.416Z,59.54
2022-09-04T00:25:26.490Z,59.76
2022-09-04T00:28:24.684Z,59.50
2022-09-04T00:31:03.474Z,59.89
2022-09-04T00:33:53.356Z,59.62
2022-09-04T00:36:25.627Z,59.66
2022-09-04T00:39:03.691Z,59.99
2022-09-04T00:42:07.040Z,60.16
2022-09-04T00:45:03.482Z,60.12
2022-09-04T00:47:49.013Z,60.55
2022-09-04T00:50:47.151Z,60.13
2022-09-04T00:53:24.401Z,60.02
2022-09-04T00:56:32.483Z,60.37
2022-09-04T00:59:32.146Z,60.02
2022-09-04T01:02:25.361Z,60.09
2022-09-04T01:05:19.561Z,60.59
2022-09-04T01:07:59.210Z,60.21
2022-09-04T01:10:45.994Z,60.70
2022-09-04T01:13:37.011Z,60.68
2022-09-04T01:16:20.083Z,60.75
2022-09-04T01:19:08.854Z,60.87
2022-09-04T01:22:17.754Z,60.84
2022-09-04T01:25:47.958Z,61.32
2022-09-04T01:28:28.200Z,60.94
2022-09-04T01:31:14.560Z,60.81
2022-09-04T01:34:06.548Z,60.98
2022-09-04T01:36:50.401Z,61.09
2022-09-04T01:39:23.743Z,61.12
2022-09-04T01:42:26.680Z,60.97
2022-09-04T01:44:54.837Z,61.29
2022-09-04T01:47:37.047Z,61.33
2022-09-04T01:50:29.049Z,61.01
2022-09-04T01:53:25.851Z,61.10
2022-09-04T01:56:13.426Z,61.22
2022-09-04T01:58:48.279Z,61.41
2022-09-04T02:01:43.257Z,61.23
2022-09-04T02:04:48.563Z,61.19
2022-09-04T02:07:38.421Z,61.58
2022-09-04T02:10:56.581Z,61.50
2022-09-04T02:14:06.673Z,61.69
2022-09-04T02:16:46.936Z,61.47
2022-09-04T02:19:28.371Z,61.44
2022-09-04T02:22:07.156Z,61.69
2022-09-04T02:24:58.464Z,61.48
2022-09-04T02:27:50.133Z,61.42
2022-09-04T02:30:20.563Z,61.33
2022-09-04T02:33:23.576Z,61.22
2022-09-04T02:36:07.466Z,61.53
2022-09-04T02:39:12.034Z,62.07
2022-09-04T02:42:04.091Z,61.64
2022-09-04T02:44:47.596Z,61.62
2022-09-04T02:47:47.384Z,61.73
2022-09-04T02:50:38.762Z,62.14
2022-09-04T02:53:31.977Z,62.18
2022-09-04T02:56:09.063Z,61.55
2022-09-04T02:58:58.900Z,62.08
2022-09-04T03:01:50.558Z,61.92
2022-09-04T03:04:25.058Z,62.36
2022-09-04T03:07:11.631Z,62.15
2022-09-04T03:09:54.563Z,62.48
2022-09-04T03:12:46.078Z,62.35
2022-09-04T03:15:21.795Z,62.31
2022-09-04T03:17:59.138Z,62.67
2022-09-04T03:20:32.178Z,62.39
2022-09-04T03:23:10.255Z,62.49
2022-09-04T03:26:26.527Z,62.91
2022-09-04T03:29:16.336Z,62.33
2022-09-04T03:32:15.512Z,62.51
2022-09-04T03:35:18.670Z,62.55
2022-09-04T03:38:11.237Z,63.10
2022-09-04T03:40:52.602Z,63.28
2022-09-04T03:43:39.043Z,63.29
2022-09-04T03:46:42.038Z,63.65
2022-09-04T03:49:41.299Z,63.99
2022-09-04T03:52:33.394Z,63.98
2022-09-04T03:55:37.483Z,63.90
2022-09-04T03:58:54.814Z,63.64
2022-09-04T04:01:28.783Z,63.96
2022-09-04T04:03:59.918Z,64.32
2022-09-04T04:06:41.886Z,63.94
2022-09-04T04:09:15.880Z,63.90
2022-09-04T04:12:05.773Z,64.13
2022-09-04T04:14:39.504Z,64.28
2022-09-04T04:17:22.827Z,64.23
2022-09-04T04:20:23.467Z,64.33
2022-09-04T04:23:07.991Z,64.32
2022-09-04T04:25:39.367Z,64.90
2022-09-04T04:28:20.321Z,65.03
2022-09-04T04:30:53.435Z,64.61
2022-09-04T04:33:49.033Z,64.98
2022-09-04T04:36:26.087Z,64.81
2022-09-04T04:39:14.720Z,64.98
2022-09-04T04:42:05.972Z,65.07
2022-09-04T04:45:11.878Z,65.12
2022-09-04T04:47:58.937Z,65.25
2022-09-04T04:50:46.240Z,64.84
2022-09-04T04:53:39.910Z,64.56
2022-09-04T04:56:31.771Z,64.63
2022-09-04T04:59:24.649Z,65.09
2022-09-04T05:01:58.036Z,64.92
2022-09-04T05:04:47.639Z,65.20
2022-09-04T05:07:37.220Z,65.00
2022-09-04T05:10:20.571Z,65.06
2022-09-04T05:13:00.415Z,64.75
2022-09-04T05:16:18.077Z,64.61
2022-09-04T05:18:59.800Z,64.84
2022-09-04T05:21:42.158Z,64.39
2022-09-04T05:24:36.350Z,65.02
2022-09-04T05:27:40.841Z,64.89
2022-09-04T05:30:12.688Z,64.77
2022-09-04T05:33:00.135Z,64.81
2022-09-04T05:36:06.661Z,64.55
2022-09-04T05:38:57.298Z,64.33
2022-09-04T05:41:44.132Z,64.83
2022-09-04T05:44:41.601Z,64.74
2022-09-04T05:47:39.266Z,64.25
2022-09-04T05:50:41.608Z,64.32
2022-09-04T05:53:09.783Z,63.81
2022-09-04T05:56:05.703Z,63.98
2022-09-04T05:59:02.728Z,63.91
2022-09-04T06:01:56.514Z,64.11
2022-09-04T06:04:42.782Z,63.80
2022-09-04T06:07:35.473Z,63.78
2022-09-04T06:10:41.359Z,63.95
2022-09-04T06:13:15.684Z,63.92
2022-09-04T06:16:02.983Z,63.78
2022-09-04T06:19:11.997Z,63.51
2022-09-04T06:21:57.703Z,63.44
2022-09-04T06:25:11.139Z,63.17
2022-09-04T06:28:00.464Z,63.37
2022-09-04T06:30:48.997Z,63.29
2022-09-04T06:33:29.917Z,63.18
2022-09-04T06:36:36.166Z,63.42
2022-09-04T06:39:20.036Z,62.73
2022-09-04T06:42:13.555Z,63.25
2022-09-04T06:45:12.177Z,62.65
2022-09-04T06:48:25.216Z,62.81
2022-09-04T06:51:43.143Z,62.32
2022-09-04T06:54:51.222Z,62.38
2022-09-04T06:57:25.589Z,62.50
2022-09-04T07:00:09.121Z,62.51
2022-09-04T07:02:47.336Z,62.46
2022-09-04T07:05:38.380Z,62.82
2022-09-04T07:08:35.571Z,62.39
2022-09-04T07:11:28.820Z,63.29
2022-09-04T07:14:16.637Z,62.92
2022-09-04T07:17:06.554Z,62.92
2022-09-04T07:20:18.830Z,63.12
2022-09-04T07:23:03.046Z,62.64
2022-09-04T07:25:44.488Z,62.29
2022-09-04T07:28:44.242Z,61.89
2022-09-04T07:31:27.235Z,61.62
2022-09-04T07:34:13.949Z,61.86
2022-09-04T07:36:56.131Z,61.69
2022-09-04T07:39:50.903Z,61.90
2022-09-04T07:42:47.829Z,61.69
2022-09-04T07:45:53.153Z,61.65
2022-09-04T07:48:41.133Z,61.55
2022-09-04T07:51:28.068Z,61.46
2022-09-04T07:54:25.163Z,61.25
2022-09-04T07:57:34.266Z,61.38
2022-09-04T08:00:23.086Z,61.37
2022-09-04T08:03:13.688Z,61.10
2022-09-04T08:05:54.722Z,61.09
2022-09-04T08:08:47.313Z,60.49
2022-09-04T08:11:29.839Z,60.77
2022-09-04T08:14:19.855Z,60.74
2022-09-04T08:17:06.769Z,60.79
2022-09-04T08:20:10.016Z,60.46
2022-09-04T08:23:07.624Z,60.01
2022-09-04T08:26:14.331Z,60.33
2022-09-04T08:29:05.389Z,59.83
2022-09-04T08:31:43.473Z,59.91
2022-09-04T08:34:40.137Z,59.77
2022-09-04T08:37:28.243Z,59.31
2022-09-04T08:40:33.060Z,59.55
2022-09-04T08:43:52.488Z,59.39
2022-09-04T08:47:02.046Z,59.54
2022-09-04T08:49:39.400Z,59.35
2022-09-04T08:52:35.162Z,58.47
2022-09-04T08:55:43.288Z,58.60
2022-09-04T08:58:47.053Z,58.35
2022-09-04T09:01:40.049Z,58.40
2022-09-04T09:04:39.045Z,58.25
2022-09-04T09:07:45.238Z,58.06
2022-09-04T09:10:40.124Z,57.96
2022-09-04T09:13:56.755Z,57.60
2022-09-04T09:16:32.667Z,57.28
2022-09-04T09:19:40.765Z,57.55
2022-09-04T09:22:18.454Z,57.15
2022-09-04T09:25:32.343Z,57.05
2022-09-04T09:28:15.828Z,57.36
2022-09-04T09:31:21.959Z,56.43
2022-09-04T09:33:53.501Z,56.60
2022-09-04T09:36:35.682Z,56.68
2022-09-04T09:39:12.976Z,56.35
2022-09-04T09:42:15.548Z,56.32
2022-09-04T09:45:30.859Z,56.26
2022-09-04T09:48:17.595Z,55.75
2022-09-04T09:50:55.140Z,56.00
2022-09-04T09:53:44.985Z,55.85
2022-09-04T09:57:08.752Z,55.74
2022-09-04T09:59:41.768Z,55.84
2022-09-04T10:02:38.510Z,55.26
2022-09-04T10:05:31.528Z,55.07
2022-09-04T10:08:36.018Z,54.87
2022-09-04T10:11:29.032Z,54.70
2022-09-04T10:14:20.242Z,54.93
2022-09-04T10:17:24.807Z,53.96
2022-09-04T10:20:31.192Z,54.08
2022-09-04T10:23:05.631Z,54.13
2022-09-04T10:25:45.892Z,53.88
2022-09-04T10:28:29.057Z,53.69
2022-09-04T10:31:31.736Z,53.72
2022-09-04T10:34:27.736Z,52.73
2022-09-04T10:37:07.347Z,53.02
2022-09-04T10:40:27.619Z,53.42
2022-09-04T10:43:42.657Z,52.74
2022-09-04T10:46:48.464Z,52.44
2022-09-04T10:49:19.365Z,52.43
2022-09-04T10:51:50.403Z,52.17
2022-09-04T10:54:26.159Z,51.73
2022-09-04T10:57:17.068Z,51.92
2022-09-04T11:00:11.917Z,51.37
2022-09-04T11:03:11.340Z,50.86
2022-09-04T11:05:47.054Z,50.79
2022-09-04T11:08:20.743Z,50.97
2022-09-04T11:11:18.176Z,50.20
2022-09-04T11:14:11.364Z,50.07
2022-09-04T11:16:50.599Z,50.28
2022-09-04T11:19:57.832Z,50.20
2022-09-04T11:23:18.734Z,49.57
2022-09-04T11:26:26.234Z,49.12
2022-09-04T11:29:24.682Z,50.23
2022-09-04T11:32:27.531Z,49.58
2022-09-04T11:35:14.061Z,49.36
2022-09-04T11:38:17.716Z,49.16
2022-09-04T11:41:10.880Z,49.05
2022-09-04T11:43:51.418Z,48.95
2022-09-04T11:46:41.794Z,48.07
2022-09-04T11:49:30.060Z,47.79
2022-09-04T11:52:14.714Z,47.68
2022-09-04T11:55:06.738Z,47.40
2022-09-04T11:57:49.457Z,47.21
2022-09-04T12:00:19.893Z,47.15
2022-09-04T12:03:19.088Z,47.58
2022-09-04T12:06:35.336Z,47.75
2022-09-04T12:09:55.614Z,47.48
2022-09-04T12:12:48.064Z,47.07
2022-09-04T12:15:56.472Z,46.89
2022-09-04T12:19:03.731Z,46.93
2022-09-04T12:22:01.666Z,46.35
2022-09-04T12:25:34.687Z,46.18
2022-09-04T12:28:40.099Z,45.95
2022-09-04T12:31:57.185Z,45.95
2022-09-04T12:35:04.304Z,46.00
2022-09-04T12:37:45.878Z,45.60
2022-09-04T12:40:30.811Z,45.63
2022-09-04T12:43:21.038Z,44.93
2022-09-04T12:46:24.970Z,44.72
2022-09-04T12:49:06.800Z,44.28
2022-09-04T12:52:19.350Z,43.89
2022-09-04T12:54:54.914Z,43.76
2022-09-04T12:57:30.657Z,43.98
2022-09-04T13:00:15.355Z,44.29
2022-09-04T13:03:00.406Z,44.37
2022-09-04T13:05:53.748Z,43.81
2022-09-04T13:08:34.231Z,44.46
2022-09-04T13:11:21.663Z,44.45
2022-09-04T13:14:36.351Z,44.45
2022-09-04T13:17:50.350Z,44.90
2022-09-04T13:20:22.934Z,44.67
2022-09-04T13:22:54.105Z,44.79
2022-09-04T13:26:00.441Z,44.30
2022-09-04T13:29:03.735Z,44.09
2022-09-04T13:32:02.916Z,44.29
2022-09-04T13:34:46.061Z,44.47
2022-09-04T13:37:39.338Z,44.20
2022-09-04T13:40:40.072Z,44.01
2022-09-04T13:43:43.550Z,44.05
2022-09-04T13:46:39.090Z,44.13
2022-09-04T13:49:21.108Z,44.24
2022-09-04T13:52:00.610Z,43.94
2022-09-04T13:54:42.229Z,43.88
2022-09-04T13:57:21.894Z,43.05
2022-09-04T13:59:50.760Z,43.01
2022-09-04T14:02:26.982Z,43.26
2022-09-04T14:05:09.594Z,43.39
2022-09-04T14:07:44.787Z,43.35
2022-09-04T14:10:36.305Z,43.53
2022-09-04T14:13:35.045Z,43.15
2022-09-04T14:16:16.276Z,43.04
2022-09-04T14:19:15.734Z,42.73
2022-09-04T14:22:12.375Z,42.74
2022-09-04T14:24:56.192Z,42.14
2022-09-04T14:27:39.693Z,42.50
2022-09-04T14:30:24.346Z,42.22
2022-09-04T14:33:19.319Z,42.24
2022-09-04T14:36:05.941Z,42.25
2022-09-04T14:38:43.268Z,41.77
2022-09-04T14:41:34.041Z,41.44
2022-09-04T14:44:25.409Z,41.39
2022-09-04T14:47:00.699Z,40.97
2022-09-04T14:49:31.953Z,40.71
2022-09-04T14:52:21.774Z,40.99
2022-09-04T14:54:58.538Z,40.86
2022-09-04T14:57:42.514Z,40.33
2022-09-04T15:00:19.338Z,39.39
2022-09-04T15:03:15.866Z,39.72
2022-09-04T15:05:56.729Z,39.62
2022-09-04T15:08:28.120Z,38.25
2022-09-04T15:11:33.409Z,36.57
2022-09-04T15:14:23.871Z,34.76
2022-09-04T15:16:57.321Z,33.92
2022-09-04T15:19:46.597Z,33.38
2022-09-04T15:22:45.672Z,32.73
2022-09-04T15:25:58.253Z,32.56
2022-09-04T15:28:49.945Z,32.23
2022-09-04T15:31:35.683Z,32.30
2022-09-04T15:34:10.382Z,32.29
2022-09-04T15:36:45.639Z,32.43
2022-09-04T15:39:28.552Z,32.39
2022-09-04T15:41:57.325Z,32.66
2022-09-04T15:44:52.799Z,32.83
2022-09-04T15:47:36.084Z,33.05
2022-09-04T15:50:36.518Z,33.48
2022-09-04T15:53:26.418Z,33.53
2022-09-04T15:56:11.387Z,33.60
2022-09-04T15:59:01.752Z,33.73
2022-09-04T16:01:56.611Z,34.05
2022-09-04T16:04:26.724Z,34.49
2022-09-04T16:07:20.595Z,34.54
2022-09-04T16:10:21.697Z,34.80
2022-09-04T16:12:57.436Z,35.00
2022-09-04T16:15:31.768Z,35.41
2022-09-04T16:18:13.765Z,35.71
2022-09-04T16:20:59.478Z,35.94
2022-09-04T16:23:43.473Z,36.30
2022-09-04T16:26:17.310Z,36.53
2022-09-04T16:29:03.678Z,36.64
2022-09-04T16:31:36.683Z,36.52
2022-09-04T16:34:37.452Z,36.91
2022-09-04T16:37:21.209Z,36.99
2022-09-04T16:40:14.834Z,37.33
2022-09-04T16:43:20.355Z,37.63
2022-09-04T16:46:02.160Z,37.78
2022-09-04T16:48:47.280Z,38.11
2022-09-04T16:51:40.362Z,38.35
2022-09-04T16:54:13.252Z,38.71
2022-09-04T16:56:50.143Z,38.78
2022-09-04T16:59:42.063Z,38.91
2022-09-04T17:02:21.861Z,39.04
2022-09-04T17:05:35.564Z,39.07
2022-09-04T17:08:28.208Z,39.70
2022-09-04T17:11:11.114Z,40.10
2022-09-04T17:14:09.220Z,40.70
2022-09-04T17:16:53.973Z,40.78
2022-09-04T17:19:22.175Z,41.03
2022-09-04T17:29:02.430Z,41.04
2022-09-04T17:29:08.973Z,41.71
2022-09-04T17:29:14.169Z,41.13
2022-09-04T17:31:28.632Z,41.81
2022-09-04T17:40:37.721Z,41.81
2022-09-04T17:40:42.888Z,41.73
2022-09-04T17:44:04.076Z,42.14
2022-09-04T17:46:56.017Z,42.65
2022-09-04T17:49:34.734Z,42.49
2022-09-04T17:52:08.906Z,42.36
2022-09-04T17:54:49.057Z,43.01
2022-09-04T17:58:10.639Z,43.42
2022-09-04T18:01:33.864Z,43.20
2022-09-04T18:04:27.189Z,43.63
2022-09-04T18:07:21.857Z,43.71
2022-09-04T18:10:08.970Z,44.47
2022-09-04T18:13:36.271Z,43.97
2022-09-04T18:16:36.356Z,44.10
2022-09-04T18:19:31.333Z,44.17
2022-09-04T18:22:33.482Z,44.66
2022-09-04T18:25:27.497Z,44.75
2022-09-04T18:28:19.001Z,44.80
2022-09-04T18:37:06.289Z,45.18
2022-09-04T18:37:26.211Z,45.13
2022-09-04T18:38:41.187Z,45.28
2022-09-04T18:48:54.957Z,45.03
2022-09-04T18:50:30.122Z,45.53
2022-09-04T18:50:37.889Z,45.39
2022-09-04T18:51:05.797Z,45.22
2022-09-04T18:53:34.540Z,45.48
2022-09-04T18:56:20.904Z,45.26
2022-09-04T18:59:16.988Z,45.50
2022-09-04T19:02:04.347Z,44.90
2022-09-04T19:05:02.407Z,45.04
2022-09-04T19:07:37.208Z,45.61
2022-09-04T19:10:40.810Z,45.31
2022-09-04T19:13:30.917Z,45.17
2022-09-04T19:16:23.381Z,45.34
2022-09-04T19:19:17.255Z,45.37
2022-09-04T19:21:58.255Z,45.07
2022-09-04T19:24:42.154Z,45.16
2022-09-04T19:27:34.711Z,44.90
2022-09-04T19:30:39.770Z,45.09
2022-09-04T19:33:28.563Z,45.05
2022-09-04T19:36:08.333Z,45.36
2022-09-04T19:45:57.650Z,45.19
2022-09-04T19:45:59.229Z,44.79
2022-09-04T19:46:19.715Z,45.06
2022-09-04T19:48:20.515Z,44.94
2022-09-04T19:53:30.487Z,45.16
2022-09-04T19:54:03.995Z,45.29
2022-09-04T19:57:31.001Z,44.95
2022-09-04T20:05:15.715Z,45.56
2022-09-04T20:07:55.486Z,45.41
2022-09-04T20:10:52.603Z,45.63
2022-09-04T20:14:13.974Z,45.98
2022-09-04T20:16:55.306Z,45.80
2022-09-04T20:19:39.002Z,46.23
2022-09-04T20:23:34.518Z,46.27
2022-09-04T20:26:23.045Z,46.46
2022-09-04T20:29:13.918Z,46.43
2022-09-04T20:32:09.898Z,46.67
2022-09-04T20:34:49.721Z,47.08
2022-09-04T20:38:39.472Z,47.27
2022-09-04T20:42:56.537Z,48.18
2022-09-04T20:51:45.314Z,48.58
2022-09-04T21:12:21.227Z,50.63
2022-09-04T21:27:02.993Z,51.53
2022-09-04T21:28:02.262Z,52.26
2022-09-04T21:32:48.466Z,52.32
2022-09-04T21:41:23.563Z,52.68
2022-09-04T21:43:24.774Z,52.05
2022-09-04T21:44:37.629Z,52.24
2022-09-04T21:48:32.376Z,52.45
2022-09-04T21:56:53.426Z,52.69
2022-09-04T21:57:50.452Z,52.96
2022-09-04T22:04:24.439Z,53.82
2022-09-04T22:13:38.857Z,53.19
2022-09-04T22:14:08.404Z,53.42
2022-09-04T22:57:56.005Z,53.56
2022-09-04T23:01:11.531Z,53.42
2022-09-04T23:04:05.923Z,53.90
2022-09-04T23:08:22.958Z,53.58
2022-09-04T23:13:51.849Z,53.89
2022-09-04T23:14:03.083Z,53.60
2022-09-04T23:16:45.311Z,53.75
2022-09-04T23:24:42.477Z,53.51
2022-09-04T23:26:45.336Z,53.50
2022-09-04T23:26:49.802Z,53.80
2022-09-04T23:29:26.791Z,53.90
2022-09-04T23:32:30.941Z,53.74
2022-09-04T23:35:58.408Z,53.84
2022-09-04T23:39:32.750Z,54.05
2022-09-04T23:42:58.470Z,54.35
2022-09-04T23:46:01.475Z,54.46
2022-09-04T23:49:29.272Z,54.87
2022-09-04T23:52:47.761Z,55.11
2022-09-04T23:56:13.386Z,55.15
2022-09-04T23:59:40.187Z,55.58
